createdAt,value
2018-12-19T00:00:56.176Z,4.78
2018-12-19T00:02:04.849Z,4.75
2018-12-19T00:03:13.507Z,4.76
2018-12-19T00:04:22.188Z,4.86
2018-12-19T00:05:30.855Z,4.84
2018-12-19T00:06:39.522Z,4.83
2018-12-19T00:07:48.694Z,4.89
2018-12-19T00:09:02.966Z,4.94
2018-12-19T00:10:12.383Z,4.97
2018-12-19T00:11:21.048Z,4.9
2018-12-19T00:12:29.726Z,4.92
2018-12-19T00:13:38.388Z,4.9
2018-12-19T00:14:47.060Z,4.94
2018-12-19T00:15:55.722Z,4.94
2018-12-19T00:17:04.395Z,4.95
2018-12-19T00:18:13.055Z,4.9
2018-12-19T00:19:21.725Z,4.89
2018-12-19T00:20:30.384Z,4.98
2018-12-19T00:21:39.059Z,5.01
2018-12-19T00:22:47.720Z,4.92
2018-12-19T00:23:56.385Z,5
2018-12-19T00:25:05.048Z,5.01
2018-12-19T00:26:13.724Z,5.02
2018-12-19T00:27:22.384Z,5
2018-12-19T00:28:31.052Z,5.02
2018-12-19T00:29:39.724Z,5.1
2018-12-19T00:30:48.401Z,5.1
2018-12-19T00:31:57.078Z,5.15
2018-12-19T00:33:05.746Z,5.12
2018-12-19T00:34:14.426Z,5.07
2018-12-19T00:35:23.092Z,5.1
2018-12-19T00:36:32.021Z,5.13
2018-12-19T00:37:40.691Z,5.12
2018-12-19T00:38:49.618Z,5.16
2018-12-19T00:39:58.281Z,5.18
2018-12-19T00:41:06.955Z,5.18
2018-12-19T00:42:15.620Z,5.18
2018-12-19T00:43:24.287Z,5.26
2018-12-19T00:44:32.948Z,5.23
2018-12-19T00:45:41.621Z,5.31
2018-12-19T00:46:50.555Z,5.2
2018-12-19T00:47:59.225Z,5.33
2018-12-19T00:49:07.908Z,5.16
2018-12-19T00:50:16.832Z,5.26
2018-12-19T00:51:25.503Z,5.29
2018-12-19T00:52:34.180Z,5.34
2018-12-19T00:53:42.848Z,5.4
2018-12-19T00:54:51.510Z,5.28
2018-12-19T00:56:00.179Z,5.31
2018-12-19T00:57:08.877Z,5.36
2018-12-19T00:58:17.545Z,5.31
2018-12-19T00:59:26.208Z,5.29
2018-12-19T01:00:34.876Z,5.31
2018-12-19T01:01:43.544Z,5.26
2018-12-19T01:02:52.465Z,5.34
2018-12-19T01:04:01.135Z,5.34
2018-12-19T01:05:10.066Z,5.29
2018-12-19T01:06:18.736Z,5.33
2018-12-19T01:07:27.403Z,5.38
2018-12-19T01:08:36.070Z,5.38
2018-12-19T01:09:44.742Z,5.46
2018-12-19T01:10:53.409Z,5.38
2018-12-19T01:12:02.071Z,5.33
2018-12-19T01:13:10.750Z,5.43
2018-12-19T01:14:19.411Z,5.4
2018-12-19T01:15:28.085Z,5.47
2018-12-19T01:16:36.745Z,5.51
2018-12-19T01:17:45.415Z,5.4
2018-12-19T01:18:54.078Z,5.47
2018-12-19T01:20:02.755Z,5.41
2018-12-19T01:21:11.416Z,5.46
2018-12-19T01:22:20.083Z,5.4
2018-12-19T01:23:28.753Z,5.47
2018-12-19T01:24:37.427Z,5.36
2018-12-19T01:25:46.101Z,5.4
2018-12-19T01:26:54.767Z,5.38
2018-12-19T01:28:03.439Z,5.26
2018-12-19T01:29:12.107Z,5.33
2018-12-19T01:30:21.044Z,5.34
2018-12-19T01:31:29.706Z,5.4
2018-12-19T01:32:38.378Z,5.33
2018-12-19T01:33:47.303Z,5.37
2018-12-19T01:34:56.021Z,5.36
2018-12-19T01:36:04.682Z,5.37
2018-12-19T01:37:13.354Z,5.38
2018-12-19T01:38:22.082Z,5.36
2018-12-19T01:39:30.750Z,5.38
2018-12-19T01:40:39.413Z,5.33
2018-12-19T01:41:48.134Z,5.37
2018-12-19T01:42:57.068Z,5.37
2018-12-19T01:44:05.730Z,5.37
2018-12-19T01:45:14.667Z,5.41
2018-12-19T01:46:23.328Z,5.38
2018-12-19T01:47:32.000Z,5.4
2018-12-19T01:48:40.665Z,5.37
2018-12-19T01:49:49.335Z,5.38
2018-12-19T01:50:58.015Z,5.34
2018-12-19T01:52:06.681Z,5.37
2018-12-19T01:53:15.593Z,5.4
2018-12-19T01:54:24.526Z,5.33
2018-12-19T01:55:33.440Z,5.31
2018-12-19T01:56:42.110Z,5.37
2018-12-19T01:57:50.770Z,5.29
2018-12-19T01:58:59.436Z,5.38
2018-12-19T02:00:08.099Z,5.36
2018-12-19T02:01:16.774Z,5.41
2018-12-19T02:02:25.444Z,5.41
2018-12-19T02:03:34.106Z,5.41
2018-12-19T02:04:43.028Z,5.44
2018-12-19T02:05:51.692Z,5.51
2018-12-19T02:07:00.363Z,5.44
2018-12-19T02:08:09.027Z,5.54
2018-12-19T02:09:17.695Z,5.46
2018-12-19T02:10:26.366Z,5.52
2018-12-19T02:11:35.035Z,5.49
2018-12-19T02:12:43.698Z,5.56
2018-12-19T02:13:52.367Z,5.52
2018-12-19T02:15:01.031Z,5.54
2018-12-19T02:16:09.704Z,5.51
2018-12-19T02:17:18.363Z,5.62
2018-12-19T02:18:27.030Z,5.52
2018-12-19T02:19:35.692Z,5.55
2018-12-19T02:20:44.355Z,5.49
2018-12-19T02:21:53.030Z,5.51
2018-12-19T02:23:01.699Z,5.54
2018-12-19T02:24:10.370Z,5.52
2018-12-19T02:25:19.297Z,5.58
2018-12-19T02:26:27.972Z,5.51
2018-12-19T02:27:36.901Z,5.51
2018-12-19T02:28:45.819Z,5.52
2018-12-19T02:29:54.481Z,5.62
2018-12-19T02:31:03.157Z,5.55
2018-12-19T02:32:11.869Z,5.56
2018-12-19T02:33:20.547Z,5.58
2018-12-19T02:34:29.206Z,5.54
2018-12-19T02:35:37.872Z,5.59
2018-12-19T02:36:46.802Z,5.59
2018-12-19T02:37:55.482Z,5.49
2018-12-19T02:39:04.162Z,5.59
2018-12-19T02:40:13.081Z,5.52
2018-12-19T02:41:21.766Z,5.49
2018-12-19T02:42:30.443Z,5.52
2018-12-19T02:43:39.130Z,5.52
2018-12-19T02:44:47.795Z,5.52
2018-12-19T02:45:56.467Z,5.55
2018-12-19T02:47:05.388Z,5.56
2018-12-19T02:48:14.145Z,5.62
2018-12-19T02:49:23.062Z,5.58
2018-12-19T02:50:32.013Z,5.58
2018-12-19T02:51:40.673Z,5.55
2018-12-19T02:52:49.348Z,5.61
2018-12-19T02:53:58.008Z,5.65
2018-12-19T02:55:06.734Z,5.64
2018-12-19T02:56:15.398Z,5.67
2018-12-19T02:57:24.066Z,5.81
2018-12-19T02:58:33.010Z,5.83
2018-12-19T02:59:42.213Z,5.94
2018-12-19T03:00:50.892Z,5.98
2018-12-19T03:01:59.561Z,5.97
2018-12-19T03:03:08.241Z,6.15
2018-12-19T03:04:16.920Z,6.12
2018-12-19T03:05:25.850Z,6.12
2018-12-19T03:06:34.506Z,6.22
2018-12-19T03:07:43.187Z,6.28
2018-12-19T03:08:51.854Z,6.2
2018-12-19T03:10:00.526Z,6.25
2018-12-19T03:11:09.198Z,6.32
2018-12-19T03:12:17.867Z,6.35
2018-12-19T03:13:26.542Z,6.36
2018-12-19T03:14:35.210Z,6.34
2018-12-19T03:15:43.883Z,6.34
2018-12-19T03:16:52.555Z,6.35
2018-12-19T03:18:01.251Z,6.38
2018-12-19T03:19:10.188Z,6.43
2018-12-19T03:20:18.866Z,6.41
2018-12-19T03:21:27.787Z,6.36
2018-12-19T03:22:36.459Z,6.29
2018-12-19T03:23:45.131Z,6.41
2018-12-19T03:24:54.313Z,6.38
2018-12-19T03:26:02.976Z,6.35
2018-12-19T03:27:11.917Z,6.38
2018-12-19T03:28:20.600Z,6.39
2018-12-19T03:29:29.273Z,6.44
2018-12-19T03:30:37.991Z,6.38
2018-12-19T03:31:47.220Z,6.46
2018-12-19T03:32:55.945Z,6.39
2018-12-19T03:34:04.899Z,6.39
2018-12-19T03:35:13.576Z,6.49
2018-12-19T03:36:22.246Z,6.49
2018-12-19T03:37:30.918Z,6.44
2018-12-19T03:38:39.862Z,6.44
2018-12-19T03:39:54.644Z,6.46
2018-12-19T03:41:03.838Z,6.52
2018-12-19T03:42:12.844Z,6.5
2018-12-19T03:43:21.533Z,6.6
2018-12-19T03:44:30.481Z,6.59
2018-12-19T03:45:39.157Z,6.67
2018-12-19T03:46:48.330Z,6.67
2018-12-19T03:47:57.051Z,6.7
2018-12-19T03:49:05.725Z,6.65
2018-12-19T03:50:14.390Z,6.72
2018-12-19T03:51:23.053Z,6.75
2018-12-19T03:52:31.721Z,6.85
2018-12-19T03:53:40.479Z,6.83
2018-12-19T03:54:49.149Z,6.89
2018-12-19T03:55:57.816Z,6.8
2018-12-19T03:57:06.475Z,6.95
2018-12-19T03:58:15.156Z,6.9
2018-12-19T03:59:23.822Z,6.92
2018-12-19T04:00:32.749Z,6.9
2018-12-19T04:01:41.417Z,6.89
2018-12-19T04:02:50.094Z,6.87
2018-12-19T04:03:58.766Z,6.93
2018-12-19T04:05:07.445Z,7.03
2018-12-19T04:06:16.406Z,7.01
2018-12-19T04:07:25.076Z,6.89
2018-12-19T04:08:33.787Z,7.03
2018-12-19T04:09:42.708Z,7.03
2018-12-19T04:10:51.831Z,7.04
2018-12-19T04:12:00.890Z,7.04
2018-12-19T04:13:09.645Z,7.07
2018-12-19T04:14:18.399Z,7.1
2018-12-19T04:15:27.545Z,7.07
2018-12-19T04:16:36.246Z,7.05
2018-12-19T04:17:44.921Z,7.05
2018-12-19T04:18:53.601Z,7.04
2018-12-19T04:20:02.281Z,7.05
2018-12-19T04:21:11.208Z,7.1
2018-12-19T04:22:19.882Z,7.07
2018-12-19T04:23:28.561Z,7.07
2018-12-19T04:24:37.242Z,7.1
2018-12-19T04:25:45.908Z,7.07
2018-12-19T04:26:54.587Z,7.08
2018-12-19T04:28:03.355Z,7.18
2018-12-19T04:29:12.530Z,7.1
2018-12-19T04:30:21.721Z,7.05
2018-12-19T04:31:30.401Z,7.08
2018-12-19T04:32:39.105Z,7.11
2018-12-19T04:33:47.773Z,7.01
2018-12-19T04:34:56.456Z,7.08
2018-12-19T04:36:05.128Z,7.1
2018-12-19T04:37:13.800Z,7.07
2018-12-19T04:38:22.470Z,7.08
2018-12-19T04:39:31.151Z,7.03
2018-12-19T04:40:40.101Z,7.04
2018-12-19T04:41:48.784Z,7.05
2018-12-19T04:42:57.744Z,6.92
2018-12-19T04:44:06.435Z,7.01
2018-12-19T04:45:15.215Z,7.05
2018-12-19T04:46:23.898Z,7.03
2018-12-19T04:47:32.565Z,7.03
2018-12-19T04:48:41.486Z,7.01
2018-12-19T04:49:50.169Z,7.04
2018-12-19T04:50:58.845Z,7.07
2018-12-19T04:52:07.522Z,6.96
2018-12-19T04:53:16.881Z,7.04
2018-12-19T04:54:25.564Z,7
2018-12-19T04:55:34.247Z,7.01
2018-12-19T04:56:42.957Z,6.9
2018-12-19T04:57:51.892Z,7.05
2018-12-19T04:59:00.573Z,7.01
2018-12-19T05:00:09.248Z,7.08
2018-12-19T05:01:17.928Z,7.03
2018-12-19T05:02:26.856Z,7.05
2018-12-19T05:03:35.527Z,7.01
2018-12-19T05:04:44.455Z,6.96
2018-12-19T05:05:53.375Z,6.97
2018-12-19T05:07:02.048Z,6.9
2018-12-19T05:08:10.715Z,7.03
2018-12-19T05:09:19.389Z,7.01
2018-12-19T05:10:28.062Z,7.01
2018-12-19T05:11:36.999Z,7.01
2018-12-19T05:12:45.668Z,6.93
2018-12-19T05:13:54.343Z,6.87
2018-12-19T05:15:03.026Z,6.9
2018-12-19T05:16:11.703Z,6.86
2018-12-19T05:17:20.630Z,6.86
2018-12-19T05:18:29.307Z,6.93
2018-12-19T05:19:37.976Z,6.89
2018-12-19T05:20:46.916Z,6.95
2018-12-19T05:21:55.586Z,6.89
2018-12-19T05:23:04.504Z,6.87
2018-12-19T05:24:13.174Z,6.93
2018-12-19T05:25:22.474Z,6.83
2018-12-19T05:26:31.397Z,6.97
2018-12-19T05:27:40.313Z,6.93
2018-12-19T05:28:48.991Z,6.92
2018-12-19T05:29:57.651Z,6.93
2018-12-19T05:31:06.332Z,6.92
2018-12-19T05:32:15.000Z,6.93
2018-12-19T05:33:23.681Z,6.92
2018-12-19T05:34:32.591Z,6.93
2018-12-19T05:35:41.263Z,6.89
2018-12-19T05:36:49.934Z,6.9
2018-12-19T05:37:58.609Z,6.92
2018-12-19T05:39:07.275Z,6.92
2018-12-19T05:40:21.208Z,6.95
2018-12-19T05:41:30.392Z,6.89
2018-12-19T05:42:39.053Z,6.93
2018-12-19T05:43:47.730Z,6.9
2018-12-19T05:44:56.394Z,6.9
2018-12-19T05:46:05.066Z,6.95
2018-12-19T05:47:13.732Z,6.87
2018-12-19T05:48:22.406Z,6.92
2018-12-19T05:49:31.068Z,6.95
2018-12-19T05:50:39.744Z,6.89
2018-12-19T05:51:48.401Z,6.87
2018-12-19T05:52:57.146Z,6.9
2018-12-19T05:54:05.813Z,6.95
2018-12-19T05:55:14.489Z,6.87
2018-12-19T05:56:23.145Z,6.86
2018-12-19T05:57:31.829Z,6.92
2018-12-19T05:58:40.505Z,6.87
2018-12-19T05:59:49.172Z,6.89
2018-12-19T06:00:57.838Z,6.82
2018-12-19T06:02:06.492Z,6.93
2018-12-19T06:03:15.172Z,6.95
2018-12-19T06:04:23.841Z,6.83
2018-12-19T06:05:32.521Z,6.93
2018-12-19T06:06:41.180Z,6.95
2018-12-19T06:07:49.861Z,7.01
2018-12-19T06:08:58.525Z,7.01
2018-12-19T06:10:07.204Z,7.01
2018-12-19T06:11:15.868Z,7.07
2018-12-19T06:12:24.540Z,7.07
2018-12-19T06:13:33.206Z,7.14
2018-12-19T06:14:42.128Z,7.25
2018-12-19T06:15:50.969Z,7.26
2018-12-19T06:16:59.652Z,7.29
2018-12-19T06:18:08.325Z,7.43
2018-12-19T06:19:16.992Z,7.39
2018-12-19T06:20:25.668Z,7.48
2018-12-19T06:21:34.494Z,7.5
2018-12-19T06:22:43.165Z,7.47
2018-12-19T06:23:51.823Z,7.58
2018-12-19T06:25:00.808Z,7.59
2018-12-19T06:26:09.996Z,7.55
2018-12-19T06:27:18.667Z,7.53
2018-12-19T06:28:27.558Z,7.56
2018-12-19T06:29:36.494Z,7.62
2018-12-19T06:30:45.158Z,7.64
2018-12-19T06:31:53.830Z,7.69
2018-12-19T06:33:02.508Z,7.74
2018-12-19T06:34:11.189Z,7.67
2018-12-19T06:35:19.862Z,7.77
2018-12-19T06:36:28.535Z,7.74
2018-12-19T06:37:37.209Z,7.7
2018-12-19T06:38:45.875Z,7.7
2018-12-19T06:39:54.546Z,7.77
2018-12-19T06:41:03.218Z,7.72
2018-12-19T06:42:12.141Z,7.77
2018-12-19T06:43:20.805Z,7.7
2018-12-19T06:44:29.482Z,7.77
2018-12-19T06:45:38.175Z,7.77
2018-12-19T06:46:46.859Z,7.8
2018-12-19T06:47:55.520Z,7.85
2018-12-19T06:49:04.201Z,7.8
2018-12-19T06:50:12.917Z,7.85
2018-12-19T06:51:23.532Z,7.87
2018-12-19T06:52:32.200Z,7.81
2018-12-19T06:53:40.874Z,7.77
2018-12-19T06:54:49.798Z,7.8
2018-12-19T06:55:58.466Z,7.8
2018-12-19T06:57:07.137Z,7.85
2018-12-19T06:58:16.306Z,7.87
2018-12-19T06:59:24.974Z,7.81
2018-12-19T07:00:33.641Z,7.8
2018-12-19T07:01:42.585Z,7.83
2018-12-19T07:02:51.251Z,7.8
2018-12-19T07:03:59.923Z,7.84
2018-12-19T07:05:08.592Z,7.78
2018-12-19T07:06:17.266Z,7.88
2018-12-19T07:07:25.935Z,7.78
2018-12-19T07:08:34.611Z,7.78
2018-12-19T07:09:43.280Z,7.88
2018-12-19T07:10:51.977Z,7.91
2018-12-19T07:12:00.645Z,7.85
2018-12-19T07:13:09.568Z,7.88
2018-12-19T07:14:18.495Z,7.9
2018-12-19T07:15:27.169Z,7.87
2018-12-19T07:16:35.836Z,7.93
2018-12-19T07:17:50.181Z,7.91
2018-12-19T07:18:58.854Z,7.9
2018-12-19T07:20:07.519Z,7.88
2018-12-19T07:21:16.192Z,7.88
2018-12-19T07:22:24.858Z,7.88
2018-12-19T07:23:33.522Z,7.93
2018-12-19T07:24:42.219Z,7.9
2018-12-19T07:25:51.136Z,7.99
2018-12-19T07:26:59.817Z,7.88
2018-12-19T07:28:08.739Z,7.9
2018-12-19T07:29:17.410Z,7.88
2018-12-19T07:30:26.097Z,7.88
2018-12-19T07:31:34.768Z,7.85
2018-12-19T07:32:43.442Z,7.88
2018-12-19T07:33:52.105Z,7.81
2018-12-19T07:35:00.773Z,7.84
2018-12-19T07:36:09.442Z,7.87
2018-12-19T07:37:18.371Z,7.88
2018-12-19T07:38:27.034Z,7.88
2018-12-19T07:39:35.702Z,7.9
2018-12-19T07:40:49.931Z,7.81
2018-12-19T07:41:58.609Z,7.8
2018-12-19T07:43:07.406Z,7.87
2018-12-19T07:44:16.337Z,7.78
2018-12-19T07:45:25.002Z,7.85
2018-12-19T07:46:33.683Z,7.8
2018-12-19T07:47:42.363Z,7.85
2018-12-19T07:48:51.027Z,7.87
2018-12-19T07:49:59.699Z,7.85
2018-12-19T07:51:08.615Z,7.87
2018-12-19T07:52:17.284Z,7.85
2018-12-19T07:53:25.953Z,7.85
2018-12-19T07:54:34.625Z,7.87
2018-12-19T07:55:43.299Z,7.87
2018-12-19T07:56:52.221Z,7.85
2018-12-19T07:58:00.890Z,7.9
2018-12-19T07:59:09.810Z,7.85
2018-12-19T08:00:18.473Z,7.83
2018-12-19T08:01:31.980Z,7.81
2018-12-19T08:02:40.653Z,7.87
2018-12-19T08:03:49.578Z,7.81
2018-12-19T08:04:58.244Z,7.88
2018-12-19T08:06:07.171Z,7.81
2018-12-19T08:07:15.838Z,7.8
2018-12-19T08:08:24.515Z,7.83
2018-12-19T08:09:33.218Z,7.83
2018-12-19T08:10:42.142Z,7.81
2018-12-19T08:11:56.684Z,7.85
2018-12-19T08:13:05.354Z,7.85
2018-12-19T08:14:14.033Z,7.85
2018-12-19T08:15:22.700Z,7.9
2018-12-19T08:16:31.374Z,7.91
2018-12-19T08:17:40.043Z,7.87
2018-12-19T08:18:48.718Z,7.78
2018-12-19T08:19:57.385Z,7.83
2018-12-19T08:21:06.057Z,7.9
2018-12-19T08:22:14.982Z,7.83
2018-12-19T08:23:23.663Z,7.81
2018-12-19T08:24:32.337Z,7.9
2018-12-19T08:25:41.005Z,7.84
2018-12-19T08:26:49.673Z,7.87
2018-12-19T08:27:58.356Z,7.84
2018-12-19T08:29:07.042Z,7.95
2018-12-19T08:30:16.050Z,8.01
2018-12-19T08:31:24.728Z,7.87
2018-12-19T08:32:33.647Z,7.88
2018-12-19T08:33:42.326Z,7.87
2018-12-19T08:34:50.991Z,7.87
2018-12-19T08:35:59.666Z,7.9
2018-12-19T08:37:08.638Z,7.84
2018-12-19T08:38:17.467Z,7.9
2018-12-19T08:39:26.606Z,7.81
2018-12-19T08:40:35.496Z,7.88
2018-12-19T08:41:44.290Z,7.87
2018-12-19T08:42:53.066Z,7.93
2018-12-19T08:44:01.740Z,7.81
2018-12-19T08:45:10.476Z,7.87
2018-12-19T08:46:19.281Z,7.83
2018-12-19T08:47:28.034Z,7.81
2018-12-19T08:48:37.001Z,7.84
2018-12-19T08:49:45.738Z,7.85
2018-12-19T08:50:54.463Z,7.83
2018-12-19T08:52:03.447Z,7.83
2018-12-19T08:53:12.123Z,7.87
2018-12-19T08:54:20.783Z,7.78
2018-12-19T08:55:29.469Z,7.81
2018-12-19T08:56:38.384Z,7.83
2018-12-19T08:57:47.055Z,7.87
2018-12-19T08:58:55.732Z,7.88
2018-12-19T09:00:04.418Z,7.85
2018-12-19T09:01:13.089Z,7.88
2018-12-19T09:02:21.754Z,7.87
2018-12-19T09:03:30.432Z,7.83
2018-12-19T09:04:39.101Z,7.83
2018-12-19T09:05:47.779Z,7.95
2018-12-19T09:06:56.446Z,7.88
2018-12-19T09:08:05.118Z,7.9
2018-12-19T09:09:13.793Z,7.9
2018-12-19T09:10:22.466Z,7.88
2018-12-19T09:11:31.140Z,7.88
2018-12-19T09:12:40.066Z,7.93
2018-12-19T09:13:48.735Z,7.87
2018-12-19T09:14:57.409Z,7.91
2018-12-19T09:16:07.136Z,7.87
2018-12-19T09:17:16.061Z,7.93
2018-12-19T09:18:24.722Z,7.99
2018-12-19T09:19:33.393Z,7.99
2018-12-19T09:20:42.065Z,7.95
2018-12-19T09:21:50.986Z,7.96
2018-12-19T09:22:59.652Z,7.91
2018-12-19T09:24:08.341Z,7.99
2018-12-19T09:25:17.288Z,8.02
2018-12-19T09:26:25.957Z,8.01
2018-12-19T09:27:34.686Z,8.01
2018-12-19T09:28:43.363Z,7.96
2018-12-19T09:29:52.051Z,8.06
2018-12-19T09:31:00.720Z,8.09
2018-12-19T09:32:09.460Z,8.11
2018-12-19T09:33:18.134Z,8.16
2018-12-19T09:34:34.068Z,8.18
2018-12-19T09:35:42.743Z,8.2
2018-12-19T09:36:51.405Z,8.27
2018-12-19T09:38:00.338Z,8.28
2018-12-19T09:39:09.033Z,8.31
2018-12-19T09:40:17.956Z,8.28
2018-12-19T09:41:26.622Z,8.38
2018-12-19T09:42:35.285Z,8.39
2018-12-19T09:43:44.228Z,8.46
2018-12-19T09:44:52.900Z,8.34
2018-12-19T09:46:01.579Z,8.42
2018-12-19T09:47:10.493Z,8.49
2018-12-19T09:48:19.166Z,8.46
2018-12-19T09:49:27.846Z,8.57
2018-12-19T09:50:36.517Z,8.54
2018-12-19T09:51:45.184Z,8.56
2018-12-19T09:52:53.876Z,8.61
2018-12-19T09:54:02.546Z,8.61
2018-12-19T09:55:11.219Z,8.59
2018-12-19T09:56:20.173Z,8.6
2018-12-19T09:57:28.843Z,8.59
2018-12-19T09:58:37.529Z,8.71
2018-12-19T09:59:46.198Z,8.75
2018-12-19T10:00:55.136Z,8.75
2018-12-19T10:02:04.141Z,8.81
2018-12-19T10:03:12.817Z,8.92
2018-12-19T10:04:21.485Z,8.79
2018-12-19T10:05:30.162Z,8.95
2018-12-19T10:06:38.833Z,8.87
2018-12-19T10:07:47.507Z,8.87
2018-12-19T10:08:56.171Z,8.89
2018-12-19T10:10:04.854Z,8.9
2018-12-19T10:11:18.685Z,8.87
2018-12-19T10:12:27.471Z,8.92
2018-12-19T10:13:36.144Z,8.95
2018-12-19T10:14:45.068Z,8.93
2018-12-19T10:15:53.745Z,8.93
2018-12-19T10:17:02.410Z,8.96
2018-12-19T10:18:11.078Z,8.96
2018-12-19T10:19:19.741Z,8.81
2018-12-19T10:20:28.412Z,8.89
2018-12-19T10:21:37.078Z,8.86
2018-12-19T10:22:45.764Z,8.87
2018-12-19T10:23:54.425Z,8.96
2018-12-19T10:25:03.097Z,9.12
2018-12-19T10:26:12.016Z,9.12
2018-12-19T10:27:20.948Z,9.21
2018-12-19T10:28:30.566Z,9.21
2018-12-19T10:29:39.242Z,9.16
2018-12-19T10:30:47.914Z,9.3
2018-12-19T10:31:56.614Z,9.31
2018-12-19T10:33:05.281Z,9.33
2018-12-19T10:34:13.952Z,9.3
2018-12-19T10:35:22.622Z,9.39
2018-12-19T10:36:31.297Z,9.36
2018-12-19T10:37:39.984Z,9.45
2018-12-19T10:38:48.712Z,9.42
2018-12-19T10:39:57.519Z,9.48
2018-12-19T10:41:06.365Z,9.54
2018-12-19T10:42:15.048Z,9.51
2018-12-19T10:43:24.248Z,9.59
2018-12-19T10:44:33.536Z,9.54
2018-12-19T10:45:42.199Z,9.49
2018-12-19T10:46:50.881Z,9.52
2018-12-19T10:47:59.581Z,9.47
2018-12-19T10:49:08.252Z,9.4
2018-12-19T10:50:16.909Z,9.44
2018-12-19T10:51:25.578Z,9.45
2018-12-19T10:52:34.251Z,9.37
2018-12-19T10:53:42.934Z,9.45
2018-12-19T10:54:51.647Z,9.45
2018-12-19T10:56:00.331Z,9.47
2018-12-19T10:57:09.258Z,9.59
2018-12-19T10:58:17.978Z,9.52
2018-12-19T10:59:26.665Z,9.59
2018-12-19T11:00:35.633Z,9.63
2018-12-19T11:01:44.315Z,9.67
2018-12-19T11:02:53.078Z,9.72
2018-12-19T11:04:01.810Z,9.69
2018-12-19T11:05:10.726Z,9.74
2018-12-19T11:06:19.399Z,9.73
2018-12-19T11:07:28.085Z,9.87
2018-12-19T11:08:36.765Z,9.82
2018-12-19T11:09:45.499Z,9.95
2018-12-19T11:10:54.166Z,9.84
2018-12-19T11:12:02.834Z,9.87
2018-12-19T11:13:11.507Z,9.91
2018-12-19T11:14:20.748Z,9.95
2018-12-19T11:15:29.410Z,9.99
2018-12-19T11:16:38.084Z,10.03
2018-12-19T11:17:46.747Z,9.97
2018-12-19T11:18:55.679Z,9.95
2018-12-19T11:20:04.351Z,9.91
2018-12-19T11:21:13.026Z,9.97
2018-12-19T11:22:21.710Z,9.97
2018-12-19T11:23:30.375Z,10.07
2018-12-19T11:24:39.049Z,10
2018-12-19T11:25:47.714Z,9.99
2018-12-19T11:26:56.394Z,10.06
2018-12-19T11:28:05.065Z,9.95
2018-12-19T11:29:13.725Z,9.95
2018-12-19T11:30:22.449Z,9.92
2018-12-19T11:31:31.213Z,10.12
2018-12-19T11:32:40.981Z,9.92
2018-12-19T11:33:49.649Z,10.07
2018-12-19T11:34:58.330Z,10.06
2018-12-19T11:36:07.046Z,9.97
2018-12-19T11:37:16.820Z,10.02
2018-12-19T11:38:25.490Z,10.03
2018-12-19T11:39:34.169Z,10.05
2018-12-19T11:40:43.119Z,10.03
2018-12-19T11:41:51.806Z,9.97
2018-12-19T11:43:00.509Z,10.03
2018-12-19T11:44:09.636Z,10.1
2018-12-19T11:45:18.382Z,10.07
2018-12-19T11:46:27.311Z,10.09
2018-12-19T11:47:35.986Z,10.1
2018-12-19T11:48:44.701Z,10.1
2018-12-19T11:49:53.649Z,10.15
2018-12-19T11:51:02.356Z,10.21
2018-12-19T11:52:12.324Z,10.2
2018-12-19T11:53:21.755Z,10.24
2018-12-19T11:54:30.432Z,10.2
2018-12-19T11:55:39.103Z,10.18
2018-12-19T11:56:47.800Z,10.21
2018-12-19T11:57:56.470Z,10.17
2018-12-19T11:59:05.158Z,10.24
2018-12-19T12:00:13.818Z,10.25
2018-12-19T12:01:22.575Z,10.2
2018-12-19T12:02:31.249Z,10.28
2018-12-19T12:03:40.188Z,10.33
2018-12-19T12:04:48.867Z,10.33
2018-12-19T12:05:57.531Z,10.38
2018-12-19T12:07:06.204Z,10.38
2018-12-19T12:08:15.135Z,10.36
2018-12-19T12:09:23.813Z,10.31
2018-12-19T12:10:32.474Z,10.28
2018-12-19T12:11:47.687Z,10.31
2018-12-19T12:12:56.357Z,10.3
2018-12-19T12:14:06.723Z,10.3
2018-12-19T12:15:16.438Z,10.3
2018-12-19T12:16:25.381Z,10.31
2018-12-19T12:17:34.651Z,10.39
2018-12-19T12:18:43.331Z,10.38
2018-12-19T12:19:52.319Z,10.27
2018-12-19T12:21:01.018Z,10.31
2018-12-19T12:22:09.684Z,10.31
2018-12-19T12:23:18.621Z,10.3
2018-12-19T12:24:27.544Z,10.34
2018-12-19T12:25:36.221Z,10.34
2018-12-19T12:26:44.894Z,10.27
2018-12-19T12:27:53.598Z,10.31
2018-12-19T12:29:02.271Z,10.31
2018-12-19T12:30:11.200Z,10.33
2018-12-19T12:31:20.174Z,10.48
2018-12-19T12:32:28.851Z,10.39
2018-12-19T12:33:37.778Z,10.48
2018-12-19T12:34:46.460Z,10.45
2018-12-19T12:35:55.397Z,10.41
2018-12-19T12:37:04.086Z,10.41
2018-12-19T12:38:12.775Z,10.39
2018-12-19T12:39:21.453Z,10.57
2018-12-19T12:40:30.129Z,10.51
2018-12-19T12:41:38.810Z,10.42
2018-12-19T12:42:47.492Z,10.51
2018-12-19T12:43:56.168Z,10.48
2018-12-19T12:45:05.095Z,10.46
2018-12-19T12:46:13.771Z,10.45
2018-12-19T12:47:22.463Z,10.51
2018-12-19T12:48:31.146Z,10.45
2018-12-19T12:49:39.815Z,10.42
2018-12-19T12:50:48.747Z,10.46
2018-12-19T12:51:57.670Z,10.36
2018-12-19T12:53:06.343Z,10.31
2018-12-19T12:54:15.011Z,10.36
2018-12-19T12:55:23.691Z,10.33
2018-12-19T12:56:32.364Z,10.33
2018-12-19T12:57:41.040Z,10.39
2018-12-19T12:58:49.715Z,10.36
2018-12-19T12:59:58.402Z,10.38
2018-12-19T13:01:07.097Z,10.34
2018-12-19T13:02:16.024Z,10.33
2018-12-19T13:03:24.964Z,10.24
2018-12-19T13:04:33.629Z,10.25
2018-12-19T13:05:42.300Z,10.27
2018-12-19T13:06:51.230Z,10.3
2018-12-19T13:07:59.915Z,10.18
2018-12-19T13:09:08.584Z,10.17
2018-12-19T13:10:17.517Z,10.15
2018-12-19T13:11:26.188Z,10.2
2018-12-19T13:12:34.864Z,10.2
2018-12-19T13:13:43.536Z,10.15
2018-12-19T13:14:52.212Z,10.18
2018-12-19T13:16:00.883Z,10.05
2018-12-19T13:17:09.563Z,10.18
2018-12-19T13:18:19.067Z,10.2
2018-12-19T13:19:27.826Z,10.17
2018-12-19T13:20:36.494Z,10.06
2018-12-19T13:21:45.239Z,10.09
2018-12-19T13:22:53.918Z,10.1
2018-12-19T13:24:02.590Z,10.15
2018-12-19T13:25:11.268Z,10.15
2018-12-19T13:26:19.931Z,10.23
2018-12-19T13:27:28.608Z,10.18
2018-12-19T13:28:37.278Z,10.23
2018-12-19T13:29:45.953Z,10.23
2018-12-19T13:30:54.616Z,10.2
2018-12-19T13:32:03.550Z,10.2
2018-12-19T13:33:12.224Z,10.17
2018-12-19T13:34:20.906Z,10.17
2018-12-19T13:35:29.580Z,10.2
2018-12-19T13:36:38.251Z,10.13
2018-12-19T13:37:46.929Z,10.18
2018-12-19T13:38:55.857Z,10.24
2018-12-19T13:40:04.532Z,10.23
2018-12-19T13:41:13.208Z,10.17
2018-12-19T13:42:21.889Z,10.15
2018-12-19T13:43:30.558Z,10.23
2018-12-19T13:44:39.279Z,10.12
2018-12-19T13:45:47.943Z,10.21
2018-12-19T13:46:58.885Z,10.12
2018-12-19T13:48:08.513Z,10.21
2018-12-19T13:49:17.466Z,10.2
2018-12-19T13:50:27.154Z,10.21
2018-12-19T13:51:35.901Z,10.2
2018-12-19T13:52:44.575Z,10.21
2018-12-19T13:53:53.255Z,10.2
2018-12-19T13:55:01.943Z,10.18
2018-12-19T13:56:10.690Z,10.09
2018-12-19T13:57:19.368Z,10.07
2018-12-19T13:58:28.048Z,10.17
2018-12-19T13:59:36.735Z,10.06
2018-12-19T14:00:45.403Z,10.2
2018-12-19T14:01:54.115Z,10.23
2018-12-19T14:03:02.779Z,10.07
2018-12-19T14:04:11.463Z,10.12
2018-12-19T14:05:20.136Z,10.12
2018-12-19T14:06:28.836Z,10.06
2018-12-19T14:07:37.755Z,10.15
2018-12-19T14:08:46.438Z,10.06
2018-12-19T14:09:55.184Z,10.07
2018-12-19T14:11:03.862Z,10.1
2018-12-19T14:12:16.666Z,10.05
2018-12-19T14:13:25.840Z,10.12
2018-12-19T14:14:34.518Z,10.07
2018-12-19T14:15:43.444Z,10.06
2018-12-19T14:16:52.114Z,10.1
2018-12-19T14:18:00.784Z,10.24
2018-12-19T14:19:09.461Z,10.06
2018-12-19T14:20:18.138Z,10.1
2018-12-19T14:21:26.813Z,10.2
2018-12-19T14:22:35.483Z,10.07
2018-12-19T14:23:44.153Z,10.06
2018-12-19T14:24:52.823Z,10.09
2018-12-19T14:26:01.499Z,10.12
2018-12-19T14:27:10.419Z,10.21
2018-12-19T14:28:19.106Z,10.09
2018-12-19T14:29:27.782Z,10.1
2018-12-19T14:30:36.466Z,10.13
2018-12-19T14:31:45.132Z,10.09
2018-12-19T14:32:53.804Z,10.07
2018-12-19T14:34:02.474Z,10.1
2018-12-19T14:35:11.150Z,10.1
2018-12-19T14:36:19.826Z,10.05
2018-12-19T14:37:28.503Z,10
2018-12-19T14:38:37.171Z,9.95
2018-12-19T14:39:47.231Z,10.03
2018-12-19T14:40:55.910Z,9.94
2018-12-19T14:42:04.584Z,9.99
2018-12-19T14:43:13.247Z,10.03
2018-12-19T14:44:22.193Z,9.97
2018-12-19T14:45:31.109Z,10.03
2018-12-19T14:46:39.777Z,9.92
2018-12-19T14:47:48.450Z,9.87
2018-12-19T14:48:57.123Z,10
2018-12-19T14:50:06.083Z,9.85
2018-12-19T14:51:15.009Z,9.92
2018-12-19T14:52:23.683Z,9.91
2018-12-19T14:53:32.356Z,9.9
2018-12-19T14:54:41.028Z,9.85
2018-12-19T14:55:49.700Z,9.84
2018-12-19T14:56:58.373Z,9.77
2018-12-19T14:58:07.052Z,9.77
2018-12-19T14:59:15.721Z,9.77
2018-12-19T15:00:24.398Z,9.85
2018-12-19T15:01:33.066Z,9.76
2018-12-19T15:02:41.744Z,9.88
2018-12-19T15:03:50.425Z,9.72
2018-12-19T15:04:59.367Z,9.73
2018-12-19T15:06:08.308Z,9.66
2018-12-19T15:07:17.245Z,9.67
2018-12-19T15:08:25.911Z,9.59
2018-12-19T15:09:34.747Z,9.44
2018-12-19T15:10:43.606Z,9.45
2018-12-19T15:11:52.357Z,9.3
2018-12-19T15:13:01.032Z,9.27
2018-12-19T15:14:09.704Z,9.26